createdAt,value
2018-07-06T00:00:08.958Z,17.05
2018-07-06T00:05:20.190Z,17.01
2018-07-06T00:10:31.558Z,17.05
2018-07-06T00:15:42.888Z,17.05
2018-07-06T00:20:54.132Z,16.95
2018-07-06T00:26:05.328Z,16.86
2018-07-06T00:31:16.636Z,16.76
2018-07-06T00:36:28.028Z,16.82
2018-07-06T00:41:39.352Z,16.98
2018-07-06T00:46:50.551Z,16.99
2018-07-06T00:52:01.872Z,17.05
2018-07-06T00:57:13.173Z,17.05
2018-07-06T01:02:24.400Z,16.98
2018-07-06T01:07:35.634Z,16.97
2018-07-06T01:12:51.949Z,16.84
2018-07-06T01:18:03.228Z,16.90
2018-07-06T01:23:14.484Z,16.85
2018-07-06T01:28:25.767Z,16.81
2018-07-06T01:33:36.879Z,16.78
2018-07-06T01:38:47.959Z,16.74
2018-07-06T01:43:59.300Z,16.77
2018-07-06T01:49:10.576Z,16.83
2018-07-06T01:54:21.947Z,16.84
2018-07-06T01:59:33.060Z,16.74
2018-07-06T02:04:44.387Z,16.68
2018-07-06T02:09:55.640Z,16.67
2018-07-06T02:15:06.781Z,16.61
2018-07-06T02:20:18.013Z,16.59
2018-07-06T02:25:29.100Z,16.57
2018-07-06T02:30:40.250Z,16.48
2018-07-06T02:35:51.388Z,16.40
2018-07-06T02:41:02.800Z,16.50
2018-07-06T02:46:13.956Z,16.56
2018-07-06T02:51:25.172Z,16.63
2018-07-06T02:56:36.932Z,16.59
2018-07-06T03:01:48.291Z,16.61
2018-07-06T03:06:59.550Z,16.60
2018-07-06T03:12:10.847Z,16.62
2018-07-06T03:17:21.968Z,16.67
2018-07-06T03:22:33.185Z,16.69
2018-07-06T03:27:44.474Z,16.72
2018-07-06T03:32:55.573Z,16.72
2018-07-06T03:38:06.942Z,16.74
2018-07-06T03:43:18.200Z,16.67
2018-07-06T03:48:29.449Z,16.69
2018-07-06T03:53:40.561Z,16.75
2018-07-06T03:58:51.848Z,16.84
2018-07-06T04:04:03.224Z,16.83
2018-07-06T04:09:14.638Z,16.87
2018-07-06T04:14:26.027Z,16.93
2018-07-06T04:19:37.330Z,16.91
2018-07-06T04:24:48.651Z,16.91
2018-07-06T04:30:00.000Z,16.96
2018-07-06T04:35:11.372Z,17.06
2018-07-06T04:40:22.708Z,16.99
2018-07-06T04:45:33.929Z,17.03
2018-07-06T04:50:45.045Z,17.02
2018-07-06T04:55:56.176Z,17.00
2018-07-06T05:05:59.215Z,17.04
2018-07-06T05:11:10.334Z,17.02
2018-07-06T05:16:21.525Z,17.02
2018-07-06T05:21:32.677Z,17.12
2018-07-06T05:26:44.061Z,17.19
2018-07-06T05:31:55.344Z,17.28
2018-07-06T05:37:06.700Z,17.34
2018-07-06T05:42:17.839Z,17.37
2018-07-06T05:47:29.208Z,17.33
2018-07-06T05:52:40.392Z,17.34
2018-07-06T05:57:52.216Z,17.25
2018-07-06T06:03:03.612Z,17.28
2018-07-06T06:07:56.435Z,16.92
2018-07-06T06:12:51.087Z,16.80
2018-07-06T06:17:45.681Z,16.76
2018-07-06T06:22:40.294Z,16.73
2018-07-06T06:27:34.971Z,16.59
2018-07-06T06:32:29.743Z,16.56
2018-07-06T06:37:24.782Z,16.55
2018-07-06T06:42:19.490Z,16.55
2018-07-06T06:47:14.227Z,16.57
2018-07-06T06:52:08.951Z,16.69
2018-07-06T06:57:03.660Z,16.62
2018-07-06T07:01:58.316Z,16.62
2018-07-06T07:06:53.171Z,16.63
2018-07-06T07:11:47.776Z,16.68
2018-07-06T07:16:42.083Z,16.73
2018-07-06T07:21:36.382Z,16.76
2018-07-06T07:26:31.175Z,16.89
2018-07-06T07:31:25.848Z,16.88
2018-07-06T07:36:20.475Z,16.85
2018-07-06T07:41:15.151Z,16.86
2018-07-06T07:46:09.767Z,16.88
2018-07-06T07:51:52.321Z,16.97
2018-07-06T07:56:47.072Z,17.06
2018-07-06T08:01:41.807Z,17.09
2018-07-06T08:06:36.565Z,17.16
2018-07-06T08:11:35.445Z,17.27
2018-07-06T08:16:25.777Z,17.51
2018-07-06T08:21:20.380Z,17.54
2018-07-06T08:26:14.995Z,17.46
2018-07-06T08:31:09.576Z,17.82
2018-07-06T08:36:23.469Z,18.01
2018-07-06T08:41:18.049Z,18.20
2018-07-06T08:46:12.669Z,18.40
2018-07-06T08:51:07.767Z,18.47
2018-07-06T08:56:02.380Z,18.77
2018-07-06T09:00:57.049Z,19.12
2018-07-06T09:05:51.697Z,18.98
2018-07-06T09:10:47.873Z,19.12
2018-07-06T09:15:42.566Z,19.33
2018-07-06T09:20:37.221Z,19.61
2018-07-06T09:25:31.943Z,19.45
2018-07-06T09:30:26.593Z,19.54
2018-07-06T09:35:21.191Z,19.80
2018-07-06T09:40:15.842Z,19.79
2018-07-06T09:45:10.484Z,19.61
2018-07-06T09:50:05.179Z,19.71
2018-07-06T09:54:59.853Z,20.00
2018-07-06T09:59:54.537Z,20.13
2018-07-06T10:04:49.205Z,20.02
2018-07-06T10:09:43.908Z,19.82
2018-07-06T10:14:38.564Z,19.76
2018-07-06T10:19:33.357Z,19.70
2018-07-06T10:24:27.973Z,19.66
2018-07-06T10:32:20.740Z,20.00
2018-07-06T10:37:16.036Z,20.23
2018-07-06T10:42:11.121Z,20.31
2018-07-06T10:47:05.899Z,20.26
2018-07-06T10:52:00.601Z,19.98
2018-07-06T10:56:55.320Z,19.74
2018-07-06T11:01:50.060Z,19.56
2018-07-06T11:06:44.706Z,19.36
2018-07-06T11:11:39.465Z,19.09
2018-07-06T11:16:33.972Z,19.11
2018-07-06T11:21:28.825Z,19.22
2018-07-06T11:26:23.442Z,19.22
2018-07-06T11:31:18.500Z,19.11
2018-07-06T11:36:13.145Z,19.07
2018-07-06T11:41:08.096Z,19.06
2018-07-06T11:46:02.839Z,19.22
2018-07-06T11:50:57.652Z,19.29
2018-07-06T11:55:52.269Z,19.59
2018-07-06T12:00:47.001Z,19.97
2018-07-06T12:05:41.696Z,19.99
2018-07-06T12:10:36.668Z,20.13
2018-07-06T12:15:31.372Z,20.12
2018-07-06T12:20:26.026Z,20.09
2018-07-06T12:25:20.651Z,19.77
2018-07-06T12:30:15.449Z,19.98
2018-07-06T12:35:10.047Z,20.07
2018-07-06T12:40:04.781Z,20.04
2018-07-06T12:44:59.439Z,19.95
2018-07-06T12:49:54.087Z,20.00
2018-07-06T12:54:48.772Z,20.19
2018-07-06T12:59:43.421Z,20.03
2018-07-06T13:04:38.128Z,20.25
2018-07-06T13:09:32.727Z,20.48
2018-07-06T13:14:27.365Z,20.75
2018-07-06T13:19:21.678Z,20.71
2018-07-06T13:24:16.472Z,20.61
2018-07-06T13:29:11.168Z,20.59
2018-07-06T13:34:05.998Z,20.89
2018-07-06T13:39:00.743Z,21.05
2018-07-06T13:43:55.338Z,21.43
2018-07-06T13:48:49.935Z,22.29
2018-07-06T13:53:44.631Z,22.38
2018-07-06T13:58:39.342Z,22.98
2018-07-06T14:03:33.953Z,23.29
2018-07-06T14:08:28.580Z,23.05
2018-07-06T14:13:23.240Z,22.63
2018-07-06T14:18:17.894Z,22.16
2018-07-06T14:23:12.519Z,22.23
2018-07-06T14:28:07.203Z,21.89
2018-07-06T14:33:01.849Z,21.68
2018-07-06T14:37:56.460Z,21.41
2018-07-06T14:42:51.111Z,21.48
2018-07-06T14:47:46.055Z,21.38
2018-07-06T14:52:40.664Z,21.28
2018-07-06T14:57:35.256Z,21.50
2018-07-06T15:02:29.882Z,21.49
2018-07-06T15:07:24.485Z,21.51
2018-07-06T15:12:19.397Z,21.28
2018-07-06T15:17:14.005Z,21.47
2018-07-06T15:22:08.363Z,21.47
2018-07-06T15:27:03.040Z,21.52
2018-07-06T15:31:57.651Z,21.49
2018-07-06T15:36:52.275Z,21.39
2018-07-06T15:41:46.908Z,21.59
2018-07-06T15:46:41.550Z,21.78
2018-07-06T15:51:36.128Z,21.74
2018-07-06T15:56:30.791Z,21.68
2018-07-06T16:01:25.384Z,21.75
2018-07-06T16:06:20.016Z,21.80
2018-07-06T16:11:14.627Z,21.62
2018-07-06T16:16:09.288Z,21.01
2018-07-06T16:21:03.930Z,20.78
2018-07-06T16:25:58.540Z,20.60
2018-07-06T16:30:53.151Z,20.78
2018-07-06T16:35:47.724Z,20.66
2018-07-06T16:40:42.311Z,20.56
2018-07-06T16:45:36.887Z,20.58
2018-07-06T16:50:31.645Z,20.33
2018-07-06T16:55:26.272Z,20.14
2018-07-06T17:00:20.966Z,19.94
2018-07-06T17:05:15.567Z,19.82
2018-07-06T17:10:10.192Z,19.60
2018-07-06T17:15:04.923Z,19.73
2018-07-06T17:19:59.549Z,19.24
2018-07-06T17:24:54.164Z,18.57
2018-07-06T17:29:48.964Z,18.09
2018-07-06T17:34:43.605Z,17.93
2018-07-06T17:39:38.251Z,17.90
2018-07-06T17:44:32.927Z,17.96
2018-07-06T17:49:27.612Z,17.97
2018-07-06T17:54:22.207Z,18.02
2018-07-06T17:59:16.829Z,18.04
2018-07-06T18:04:11.516Z,18.05
2018-07-06T18:09:06.692Z,18.09
2018-07-06T18:14:01.351Z,18.13
2018-07-06T18:18:56.090Z,17.95
2018-07-06T18:23:50.800Z,17.92
2018-07-06T18:28:45.439Z,17.93
2018-07-06T18:33:40.129Z,17.88
2018-07-06T18:38:35.048Z,17.83
2018-07-06T18:43:29.729Z,17.76
2018-07-06T18:48:24.340Z,17.74
2018-07-06T18:53:19.017Z,17.74
2018-07-06T18:58:13.632Z,17.66
2018-07-06T19:03:08.351Z,17.56
2018-07-06T19:08:02.995Z,17.32
2018-07-06T19:12:57.641Z,17.37
2018-07-06T19:17:52.286Z,17.33
2018-07-06T19:22:46.923Z,17.29
2018-07-06T19:27:41.555Z,17.16
2018-07-06T19:32:36.200Z,17.03
2018-07-06T19:37:30.880Z,17.02
2018-07-06T19:42:25.508Z,16.99
2018-07-06T19:47:20.112Z,16.84
2018-07-06T19:52:14.752Z,16.70
2018-07-06T19:57:09.419Z,16.70
2018-07-06T20:02:04.139Z,16.72
2018-07-06T20:06:58.803Z,16.55
2018-07-06T20:11:53.522Z,16.48
2018-07-06T20:16:48.228Z,16.61
2018-07-06T20:21:42.909Z,16.62
2018-07-06T20:26:37.576Z,16.57
2018-07-06T20:31:32.435Z,16.66
2018-07-06T20:36:27.114Z,16.69
2018-07-06T20:41:21.767Z,16.58
2018-07-06T20:46:16.468Z,16.39
2018-07-06T20:51:12.081Z,16.62
2018-07-06T20:56:06.783Z,16.76
2018-07-06T21:01:01.448Z,16.76
2018-07-06T21:05:56.107Z,16.85
2018-07-06T21:10:50.779Z,17.00
2018-07-06T21:15:45.538Z,17.01
2018-07-06T21:20:40.149Z,16.98
2018-07-06T21:25:34.825Z,17.11
2018-07-06T21:30:29.497Z,17.00
2018-07-06T21:35:24.114Z,17.00
2018-07-06T21:40:18.966Z,16.90
2018-07-06T21:45:13.617Z,16.87
2018-07-06T21:50:08.360Z,16.82
2018-07-06T21:55:03.048Z,16.80
2018-07-06T21:59:57.718Z,16.79
2018-07-06T22:04:52.431Z,16.73
2018-07-06T22:09:47.086Z,16.73
2018-07-06T22:14:41.833Z,16.81
2018-07-06T22:19:36.462Z,16.82
2018-07-06T22:24:31.151Z,16.84
2018-07-06T22:29:25.852Z,16.75
2018-07-06T22:34:20.536Z,16.90
2018-07-06T22:39:15.259Z,16.95
2018-07-06T22:44:09.937Z,16.89
2018-07-06T22:49:04.273Z,16.94
2018-07-06T22:53:58.900Z,16.93
2018-07-06T22:58:53.540Z,16.98
2018-07-06T23:03:48.196Z,16.99
2018-07-06T23:08:42.824Z,16.95
2018-07-06T23:13:37.516Z,17.06
2018-07-06T23:18:32.162Z,17.01
2018-07-06T23:23:26.777Z,16.88
2018-07-06T23:28:21.424Z,16.92
2018-07-06T23:33:16.156Z,16.85
2018-07-06T23:38:10.835Z,16.84
2018-07-06T23:43:05.468Z,16.80
2018-07-06T23:48:00.116Z,16.75
2018-07-06T23:52:54.761Z,16.72
2018-07-06T23:57:49.588Z,16.71
